createdAt,value
2018-06-02T00:00:05.529Z,99.90
2018-06-02T00:03:08.823Z,99.90
2018-06-02T00:06:12.040Z,99.90
2018-06-02T00:09:15.177Z,99.90
2018-06-02T00:12:19.580Z,99.90
2018-06-02T00:15:23.559Z,99.90
2018-06-02T00:18:26.785Z,99.90
2018-06-02T00:21:30.767Z,99.90
2018-06-02T00:24:33.971Z,99.90
2018-06-02T00:27:37.245Z,99.90
2018-06-02T00:30:40.452Z,99.90
2018-06-02T00:33:43.686Z,99.90
2018-06-02T00:36:46.870Z,99.90
2018-06-02T00:39:50.879Z,99.90
2018-06-02T00:42:54.874Z,99.90
2018-06-02T00:45:58.086Z,99.90
2018-06-02T00:49:02.051Z,99.90
2018-06-02T00:52:05.294Z,99.90
2018-06-02T00:55:08.515Z,99.90
2018-06-02T00:58:12.482Z,99.90
2018-06-02T01:01:15.676Z,99.90
2018-06-02T01:04:18.883Z,99.90
2018-06-02T01:07:23.191Z,99.90
2018-06-02T01:10:26.405Z,99.90
2018-06-02T01:13:29.694Z,99.90
2018-06-02T01:16:33.677Z,99.90
2018-06-02T01:19:36.901Z,99.90
2018-06-02T01:22:40.907Z,99.90
2018-06-02T01:25:44.116Z,99.90
2018-06-02T01:28:47.336Z,99.90
2018-06-02T01:31:51.312Z,99.90
2018-06-02T01:34:54.507Z,99.90
2018-06-02T01:37:57.893Z,99.90
2018-06-02T01:41:01.077Z,99.90
2018-06-02T01:44:04.288Z,99.90
2018-06-02T01:47:07.491Z,99.90
2018-06-02T01:50:10.716Z,99.90
2018-06-02T01:53:14.651Z,99.90
2018-06-02T01:56:18.204Z,99.90
2018-06-02T01:59:21.397Z,99.90
2018-06-02T02:02:24.593Z,99.90
2018-06-02T02:05:27.936Z,99.90
2018-06-02T02:08:31.170Z,99.90
2018-06-02T02:11:34.382Z,99.90
2018-06-02T02:14:38.364Z,99.90
2018-06-02T02:17:41.587Z,99.90
2018-06-02T02:20:44.790Z,99.90
2018-06-02T02:23:49.053Z,99.90
2018-06-02T02:26:53.016Z,99.90
2018-06-02T02:33:05.704Z,99.90
2018-06-02T02:36:09.223Z,99.90
2018-06-02T02:39:12.406Z,99.90
2018-06-02T02:42:17.089Z,99.90
2018-06-02T02:45:21.031Z,99.90
2018-06-02T02:48:24.947Z,99.90
2018-06-02T02:51:28.176Z,99.90
2018-06-02T02:54:31.340Z,99.90
2018-06-02T02:57:34.537Z,99.90
2018-06-02T03:00:37.805Z,99.90
2018-06-02T03:03:41.995Z,99.90
2018-06-02T03:06:45.181Z,99.90
2018-06-02T03:09:48.373Z,99.90
2018-06-02T03:12:51.537Z,99.90
2018-06-02T03:15:54.730Z,99.90
2018-06-02T03:19:04.462Z,99.90
2018-06-02T03:22:07.656Z,99.90
2018-06-02T03:25:11.071Z,99.90
2018-06-02T03:28:14.807Z,99.90
2018-06-02T03:31:17.989Z,99.90
2018-06-02T03:34:21.464Z,99.90
2018-06-02T03:37:24.730Z,99.90
2018-06-02T03:40:28.692Z,99.90
2018-06-02T03:43:31.921Z,99.90
2018-06-02T03:46:35.910Z,99.90
2018-06-02T03:49:39.161Z,99.90
2018-06-02T03:52:42.427Z,99.90
2018-06-02T03:55:45.644Z,99.90
2018-06-02T03:58:49.624Z,99.90
2018-06-02T04:01:52.800Z,99.90
2018-06-02T04:04:56.019Z,99.90
2018-06-02T04:07:59.234Z,99.90
2018-06-02T04:11:02.437Z,99.90
2018-06-02T04:14:06.404Z,99.90
2018-06-02T04:17:09.617Z,99.90
2018-06-02T04:20:13.617Z,99.90
2018-06-02T04:23:16.912Z,99.90
2018-06-02T04:26:20.134Z,99.90
2018-06-02T04:29:24.132Z,99.90
2018-06-02T04:32:28.144Z,99.90
2018-06-02T04:35:31.382Z,99.90
2018-06-02T04:38:34.679Z,99.90
2018-06-02T04:41:37.925Z,99.90
2018-06-02T04:44:41.827Z,99.90
2018-06-02T04:47:45.040Z,99.90
2018-06-02T04:50:48.277Z,99.90
2018-06-02T04:53:51.487Z,99.90
2018-06-02T04:56:54.723Z,99.90
2018-06-02T04:59:57.912Z,99.90
2018-06-02T05:03:01.160Z,99.90
2018-06-02T05:06:04.384Z,99.90
2018-06-02T05:09:07.564Z,99.90
2018-06-02T05:12:10.742Z,99.90
2018-06-02T05:15:15.134Z,99.90
2018-06-02T05:18:18.363Z,99.90
2018-06-02T05:21:21.537Z,99.90
2018-06-02T05:24:25.500Z,99.90
2018-06-02T05:27:29.187Z,99.90
2018-06-02T05:30:32.406Z,99.90
2018-06-02T05:33:35.613Z,99.90
2018-06-02T05:36:39.608Z,99.90
2018-06-02T05:39:43.116Z,99.90
2018-06-02T05:42:46.331Z,99.90
2018-06-02T05:45:49.548Z,99.90
2018-06-02T05:48:52.768Z,99.90
2018-06-02T05:51:55.986Z,99.90
2018-06-02T05:54:59.233Z,99.90
2018-06-02T05:58:02.486Z,99.90
2018-06-02T06:01:05.672Z,99.90
2018-06-02T06:04:09.107Z,99.90
2018-06-02T06:07:13.090Z,99.90
2018-06-02T06:10:16.315Z,99.90
2018-06-02T06:13:20.298Z,99.90
2018-06-02T06:16:23.499Z,99.90
2018-06-02T06:19:26.696Z,99.90
2018-06-02T06:22:31.329Z,99.90
2018-06-02T06:25:34.537Z,99.90
2018-06-02T06:28:39.054Z,99.90
2018-06-02T06:31:43.026Z,99.90
2018-06-02T06:34:46.664Z,99.90
2018-06-02T06:37:49.870Z,99.90
2018-06-02T06:40:53.676Z,99.90
2018-06-02T06:43:57.683Z,99.90
2018-06-02T06:47:01.664Z,99.90
2018-06-02T06:50:06.962Z,99.90
2018-06-02T06:53:10.965Z,99.90
2018-06-02T06:56:14.251Z,99.90
2018-06-02T06:59:18.261Z,99.90
2018-06-02T07:02:21.472Z,99.90
2018-06-02T07:05:24.680Z,99.90
2018-06-02T07:08:37.157Z,99.90
2018-06-02T07:11:40.868Z,99.90
2018-06-02T07:14:44.373Z,99.90
2018-06-02T07:17:48.376Z,99.90
2018-06-02T07:20:52.349Z,99.90
2018-06-02T07:23:56.270Z,99.90
2018-06-02T07:27:00.125Z,99.90
2018-06-02T07:30:04.119Z,99.90
2018-06-02T07:33:08.158Z,99.90
2018-06-02T07:36:11.410Z,99.90
2018-06-02T07:39:15.457Z,99.90
2018-06-02T07:42:18.722Z,99.90
2018-06-02T07:45:21.992Z,99.90
2018-06-02T07:48:25.334Z,99.90
2018-06-02T07:51:29.420Z,99.90
2018-06-02T07:54:32.679Z,99.90
2018-06-02T07:57:35.939Z,99.90
2018-06-02T08:00:39.141Z,99.90
2018-06-02T08:03:42.760Z,99.90
2018-06-02T08:06:47.987Z,99.90
2018-06-02T08:09:52.018Z,99.90
2018-06-02T08:12:55.239Z,99.90
2018-06-02T08:15:59.175Z,99.90
2018-06-02T08:19:03.075Z,99.90
2018-06-02T08:22:06.376Z,99.90
2018-06-02T08:25:09.741Z,99.90
2018-06-02T08:28:14.303Z,99.90
2018-06-02T08:31:17.538Z,99.90
2018-06-02T08:34:20.903Z,99.90
2018-06-02T08:37:24.149Z,99.90
2018-06-02T08:40:27.447Z,99.90
2018-06-02T08:43:31.454Z,99.90
2018-06-02T08:46:37.895Z,99.90
2018-06-02T08:49:57.740Z,99.90
2018-06-02T09:14:43.653Z,99.90
2018-06-02T09:17:47.625Z,99.90
2018-06-02T09:20:50.886Z,99.90
2018-06-02T09:23:54.977Z,99.90
2018-06-02T09:26:58.925Z,99.90
2018-06-02T09:30:04.097Z,99.90
2018-06-02T09:33:08.174Z,99.90
2018-06-02T09:36:11.446Z,99.90
2018-06-02T09:39:16.497Z,99.90
2018-06-02T09:42:19.705Z,99.90
2018-06-02T09:45:23.380Z,99.90
2018-06-02T09:48:27.399Z,99.90
2018-06-02T09:51:31.368Z,99.90
2018-06-02T09:54:34.769Z,99.90
2018-06-02T09:57:38.199Z,99.50
2018-06-02T10:00:42.278Z,99.90
2018-06-02T10:03:45.509Z,99.20
2018-06-02T10:06:49.478Z,98.50
2018-06-02T10:09:52.690Z,98.50
2018-06-02T10:12:56.191Z,98.90
2018-06-02T10:15:59.420Z,98.60
2018-06-02T10:19:03.497Z,98.10
2018-06-02T10:25:27.514Z,97.50
2018-06-02T10:28:31.572Z,96.20
2018-06-02T10:31:34.773Z,96.10
2018-06-02T10:34:39.328Z,95.00
2018-06-02T10:37:42.620Z,93.30
2018-06-02T10:40:46.500Z,92.20
2018-06-02T10:43:49.719Z,90.90
2018-06-02T10:46:52.894Z,91.20
2018-06-02T10:49:56.402Z,91.40
2018-06-02T10:53:00.450Z,91.40
2018-06-02T10:56:04.537Z,92.10
2018-06-02T10:59:07.755Z,92.00
2018-06-02T11:02:11.001Z,91.50
2018-06-02T11:05:14.239Z,92.50
2018-06-02T11:08:17.554Z,91.50
2018-06-02T11:11:21.558Z,93.00
2018-06-02T11:14:24.751Z,92.80
2018-06-02T11:17:29.963Z,93.80
2018-06-02T11:20:33.997Z,94.70
2018-06-02T11:23:37.284Z,94.40
2018-06-02T11:26:41.308Z,95.00
2018-06-02T11:29:44.562Z,94.50
2018-06-02T11:32:47.736Z,95.10
2018-06-02T11:35:51.994Z,94.70
2018-06-02T11:38:55.894Z,94.20
2018-06-02T11:41:59.849Z,94.40
2018-06-02T11:45:05.160Z,94.40
2018-06-02T11:48:08.388Z,94.60
2018-06-02T11:51:12.405Z,94.00
2018-06-02T11:54:15.576Z,93.90
2018-06-02T11:57:19.366Z,93.00
2018-06-02T12:00:22.593Z,92.50
2018-06-02T12:03:25.794Z,91.70
2018-06-02T12:06:28.989Z,91.10
2018-06-02T12:09:32.228Z,92.10
2018-06-02T12:12:35.451Z,90.80
2018-06-02T12:15:38.806Z,91.50
2018-06-02T12:18:42.033Z,91.70
2018-06-02T12:21:45.314Z,92.10
2018-06-02T12:24:49.525Z,91.70
2018-06-02T12:27:52.769Z,91.60
2018-06-02T12:30:56.009Z,92.80
2018-06-02T12:33:59.200Z,93.20
2018-06-02T12:37:03.406Z,93.60
2018-06-02T12:40:06.619Z,94.90
2018-06-02T12:43:10.604Z,94.30
2018-06-02T12:46:14.648Z,94.20
2018-06-02T12:49:17.854Z,94.10
2018-06-02T12:52:21.277Z,94.50
2018-06-02T12:55:25.388Z,94.50
2018-06-02T12:58:28.700Z,94.00
2018-06-02T13:01:32.335Z,93.60
2018-06-02T13:04:35.693Z,93.40
2018-06-02T13:07:39.240Z,91.50
2018-06-02T13:10:42.488Z,91.40
2018-06-02T13:13:45.723Z,90.10
2018-06-02T13:16:48.892Z,91.20
2018-06-02T13:19:52.121Z,90.30
2018-06-02T13:22:56.119Z,89.20
2018-06-02T13:25:59.292Z,89.00
2018-06-02T13:29:02.795Z,85.90
2018-06-02T13:32:06.026Z,86.20
2018-06-02T13:35:10.003Z,89.90
2018-06-02T13:38:13.220Z,89.60
2018-06-02T13:41:16.402Z,86.50
2018-06-02T13:44:19.622Z,89.50
2018-06-02T13:47:23.578Z,92.20
2018-06-02T13:50:27.211Z,92.10
2018-06-02T13:53:30.510Z,91.00
2018-06-02T13:56:33.719Z,92.10
2018-06-02T13:59:38.396Z,92.60
2018-06-02T14:02:42.941Z,92.60
2018-06-02T14:05:47.009Z,92.20
2018-06-02T14:08:50.271Z,92.10
2018-06-02T14:11:53.435Z,92.00
2018-06-02T14:14:56.629Z,90.70
2018-06-02T14:18:00.325Z,90.90
2018-06-02T14:21:03.533Z,90.60
2018-06-02T14:24:06.801Z,90.40
2018-06-02T14:27:10.101Z,90.30
2018-06-02T14:30:13.380Z,90.60
2018-06-02T14:33:17.392Z,91.40
2018-06-02T14:36:20.612Z,91.30
2018-06-02T14:39:24.564Z,91.70
2018-06-02T14:42:27.771Z,91.50
2018-06-02T14:45:30.959Z,91.00
2018-06-02T14:48:34.152Z,90.30
2018-06-02T14:51:38.517Z,89.80
2018-06-02T14:54:42.533Z,90.80
2018-06-02T14:57:46.439Z,91.10
2018-06-02T15:00:50.310Z,91.00
2018-06-02T15:03:53.633Z,91.20
2018-06-02T15:06:56.851Z,90.10
2018-06-02T15:10:00.090Z,88.10
2018-06-02T15:13:03.280Z,88.10
2018-06-02T15:16:07.126Z,87.70
2018-06-02T15:19:11.123Z,86.20
2018-06-02T15:22:15.129Z,88.20
2018-06-02T15:25:18.928Z,88.00
2018-06-02T15:28:22.115Z,87.60
2018-06-02T15:31:25.463Z,86.50
2018-06-02T15:34:29.459Z,86.00
2018-06-02T15:37:32.773Z,86.50
2018-06-02T15:40:36.744Z,86.80
2018-06-02T15:43:40.044Z,86.50
2018-06-02T15:46:43.223Z,86.10
2018-06-02T15:49:46.454Z,88.50
2018-06-02T15:52:50.592Z,88.90
2018-06-02T15:55:55.083Z,88.10
2018-06-02T15:58:58.280Z,87.90
2018-06-02T16:02:02.890Z,88.70
2018-06-02T16:05:06.055Z,89.10
2018-06-02T16:08:09.548Z,83.50
2018-06-02T16:11:12.754Z,83.40
2018-06-02T16:14:15.990Z,84.70
2018-06-02T16:17:19.220Z,84.20
2018-06-02T16:20:23.156Z,86.60
2018-06-02T16:23:26.370Z,86.30
2018-06-02T16:26:29.590Z,86.40
2018-06-02T16:29:32.823Z,85.70
2018-06-02T16:32:37.009Z,85.20
2018-06-02T16:35:40.691Z,86.10
2018-06-02T16:38:44.699Z,90.40
2018-06-02T16:41:47.889Z,90.20
2018-06-02T16:44:51.599Z,90.30
2018-06-02T16:47:54.751Z,89.60
2018-06-02T16:50:58.224Z,90.70
2018-06-02T16:54:01.589Z,90.40
2018-06-02T16:57:05.225Z,91.40
2018-06-02T17:00:08.529Z,91.10
2018-06-02T17:03:12.606Z,91.70
2018-06-02T17:06:15.855Z,91.60
2018-06-02T17:09:20.682Z,92.30
2018-06-02T17:12:23.935Z,92.20
2018-06-02T17:15:27.479Z,92.70
2018-06-02T17:18:30.893Z,92.80
2018-06-02T17:21:34.091Z,93.20
2018-06-02T17:24:42.143Z,93.80
2018-06-02T17:27:45.430Z,93.00
2018-06-02T17:30:48.764Z,92.50
2018-06-02T17:33:52.805Z,92.40
2018-06-02T17:36:56.060Z,92.30
2018-06-02T17:40:01.848Z,92.80
2018-06-02T17:43:05.051Z,92.80
2018-06-02T17:46:10.091Z,92.50
2018-06-02T17:49:13.345Z,92.70
2018-06-02T17:52:16.653Z,93.00
2018-06-02T17:55:20.116Z,92.90
2018-06-02T17:58:24.150Z,94.20
2018-06-02T18:01:28.147Z,94.80
2018-06-02T18:04:31.468Z,94.80
2018-06-02T18:07:35.565Z,95.10
2018-06-02T18:10:39.580Z,94.30
2018-06-02T18:13:42.870Z,94.30
2018-06-02T18:16:47.614Z,94.90
2018-06-02T18:19:50.899Z,94.70
2018-06-02T18:22:54.900Z,95.40
2018-06-02T18:25:58.134Z,95.30
2018-06-02T18:29:02.091Z,95.40
2018-06-02T18:32:07.816Z,95.40
2018-06-02T18:35:11.064Z,95.50
2018-06-02T18:38:16.054Z,96.00
2018-06-02T18:41:19.281Z,96.40
2018-06-02T18:44:30.647Z,96.80
2018-06-02T18:47:34.122Z,96.60
2018-06-02T18:50:38.313Z,97.70
2018-06-02T18:53:42.544Z,97.60
2018-06-02T18:56:45.757Z,97.50
2018-06-02T18:59:49.214Z,97.90
2018-06-02T19:02:52.473Z,97.90
2018-06-02T19:05:55.765Z,97.20
2018-06-02T19:08:59.032Z,97.70
2018-06-02T19:12:03.089Z,99.00
2018-06-02T19:15:06.381Z,98.90
2018-06-02T19:18:09.647Z,98.90
2018-06-02T19:21:13.650Z,99.20
2018-06-02T19:24:16.867Z,99.10
2018-06-02T19:27:22.175Z,99.90
2018-06-02T19:30:26.227Z,99.90
2018-06-02T19:33:33.108Z,99.90
2018-06-02T19:36:36.372Z,99.90
2018-06-02T19:39:42.220Z,99.90
2018-06-02T19:42:45.474Z,99.90
2018-06-02T19:45:48.721Z,99.90
2018-06-02T19:48:51.975Z,99.90
2018-06-02T19:51:55.271Z,99.90
2018-06-02T19:54:58.586Z,99.90
2018-06-02T19:58:01.887Z,99.90
2018-06-02T20:01:05.927Z,99.90
2018-06-02T20:04:09.166Z,99.90
2018-06-02T20:07:17.957Z,99.90
2018-06-02T20:10:21.248Z,99.90
2018-06-02T20:13:24.429Z,99.90
2018-06-02T20:16:28.027Z,99.90
2018-06-02T20:19:31.289Z,99.90
2018-06-02T20:22:34.634Z,99.90
2018-06-02T20:25:38.632Z,99.90
2018-06-02T20:28:42.008Z,99.90
2018-06-02T20:31:46.199Z,99.90
2018-06-02T20:34:49.438Z,99.90
2018-06-02T20:37:53.453Z,99.90
2018-06-02T20:40:56.724Z,99.90
2018-06-02T20:44:00.380Z,99.90
2018-06-02T20:47:04.441Z,99.90
2018-06-02T20:50:07.846Z,99.90
2018-06-02T20:53:11.185Z,99.90
2018-06-02T20:56:14.453Z,99.90
2018-06-02T20:59:17.676Z,99.90
2018-06-02T21:02:21.643Z,99.90
2018-06-02T21:05:25.551Z,99.90
2018-06-02T21:08:29.587Z,99.90
2018-06-02T21:11:32.781Z,99.90
2018-06-02T21:14:36.057Z,99.90
2018-06-02T21:17:39.326Z,99.90
2018-06-02T21:20:42.798Z,99.90
2018-06-02T21:23:46.945Z,99.90
2018-06-02T21:26:50.412Z,99.90
2018-06-02T21:29:54.187Z,99.90
2018-06-02T21:32:57.358Z,99.90
2018-06-02T21:36:06.409Z,99.90
2018-06-02T21:39:22.402Z,99.90
2018-06-02T21:42:27.226Z,99.90
2018-06-02T21:45:30.682Z,99.90
2018-06-02T21:52:25.357Z,99.90
2018-06-02T21:55:31.717Z,99.90
2018-06-02T21:58:35.959Z,99.90
2018-06-02T22:01:40.108Z,99.90
2018-06-02T22:04:43.440Z,99.90
2018-06-02T22:07:47.144Z,99.90
2018-06-02T22:34:30.639Z,99.90
2018-06-02T22:41:59.572Z,99.90
2018-06-02T22:45:26.198Z,99.90
2018-06-02T22:53:41.057Z,99.90
2018-06-02T22:57:00.166Z,99.90
2018-06-02T23:09:48.659Z,99.90
2018-06-02T23:12:54.936Z,99.90
2018-06-02T23:15:59.169Z,99.90
2018-06-02T23:19:03.943Z,99.90
2018-06-02T23:22:13.752Z,99.90
2018-06-02T23:25:18.052Z,99.90
2018-06-02T23:28:24.158Z,99.90
2018-06-02T23:31:29.141Z,99.90
2018-06-02T23:34:33.424Z,99.90
2018-06-02T23:37:37.740Z,99.90
2018-06-02T23:40:46.595Z,99.90
2018-06-02T23:47:27.333Z,99.90
2018-06-02T23:50:31.601Z,99.90
2018-06-02T23:53:36.329Z,99.90
2018-06-02T23:56:41.465Z,99.90
2018-06-02T23:59:50.149Z,99.90
